sensor_id;sensor_type;location;lat;lon;timestamp;pressure;altitude;pressure_sealevel;temperature;humidity
49397;BME280;35615;41.410;2.194;2023-10-31T00:00:24;100912.56;;;20.24;42.74
49397;BME280;35615;41.410;2.194;2023-10-31T00:02:51;100921.28;;;20.12;42.84
49397;BME280;35615;41.410;2.194;2023-10-31T00:05:20;100928.28;;;20.02;43.11
49397;BME280;35615;41.410;2.194;2023-10-31T00:07:53;100922.16;;;20.14;42.87
49397;BME280;35615;41.410;2.194;2023-10-31T00:13:08;100928.28;;;20.01;43.37
49397;BME280;35615;41.410;2.194;2023-10-31T00:15:44;100931.81;;;20.18;42.96
49397;BME280;35615;41.410;2.194;2023-10-31T00:18:12;100930.03;;;20.17;42.46
49397;BME280;35615;41.410;2.194;2023-10-31T00:20:39;100940.56;;;20.23;41.99
49397;BME280;35615;41.410;2.194;2023-10-31T00:23:06;100946.66;;;20.12;42.25
49397;BME280;35615;41.410;2.194;2023-10-31T00:25:35;100944.91;;;20.27;41.81
49397;BME280;35615;41.410;2.194;2023-10-31T00:28:05;100948.41;;;20.14;41.35
49397;BME280;35615;41.410;2.194;2023-10-31T00:30:32;100945.75;;;20.02;41.61
49397;BME280;35615;41.410;2.194;2023-10-31T00:33:01;100944.06;;;20.21;41.30
49397;BME280;35615;41.410;2.194;2023-10-31T00:35:30;100956.28;;;20.11;41.51
49397;BME280;35615;41.410;2.194;2023-10-31T00:37:57;100958.03;;;20.21;41.33
49397;BME280;35615;41.410;2.194;2023-10-31T00:40:26;100961.44;;;19.90;41.00
49397;BME280;35615;41.410;2.194;2023-10-31T00:42:53;100955.94;;;19.36;42.40
49397;BME280;35615;41.410;2.194;2023-10-31T00:45:22;100955.34;;;19.91;41.27
49397;BME280;35615;41.410;2.194;2023-10-31T00:47:50;100967.66;;;20.18;41.34
49397;BME280;35615;41.410;2.194;2023-10-31T00:50:17;100961.53;;;20.25;41.03
49397;BME280;35615;41.410;2.194;2023-10-31T00:52:45;100962.41;;;20.28;41.02
49397;BME280;35615;41.410;2.194;2023-10-31T00:55:13;100962.34;;;20.04;41.38
49397;BME280;35615;41.410;2.194;2023-10-31T00:57:40;100965.91;;;20.20;41.25
49397;BME280;35615;41.410;2.194;2023-10-31T01:03:31;100966.69;;;19.85;41.15
49397;BME280;35615;41.410;2.194;2023-10-31T01:05:59;100969.38;;;20.13;41.33
49397;BME280;35615;41.410;2.194;2023-10-31T01:08:27;100974.59;;;20.00;41.21
49397;BME280;35615;41.410;2.194;2023-10-31T01:10:55;100975.53;;;20.24;40.83
49397;BME280;35615;41.410;2.194;2023-10-31T01:13:22;100962.41;;;20.19;41.03
49397;BME280;35615;41.410;2.194;2023-10-31T01:15:53;100974.66;;;20.22;41.09
49397;BME280;35615;41.410;2.194;2023-10-31T01:18:20;100980.78;;;20.22;41.15
49397;BME280;35615;41.410;2.194;2023-10-31T01:20:47;100979.72;;;19.62;41.53
49397;BME280;35615;41.410;2.194;2023-10-31T01:23:15;100988.63;;;20.15;41.16
49397;BME280;35615;41.410;2.194;2023-10-31T01:25:44;100987.66;;;19.91;41.15
49397;BME280;35615;41.410;2.194;2023-10-31T01:28:12;100994.69;;;19.95;40.74
49397;BME280;35615;41.410;2.194;2023-10-31T01:30:40;100983.31;;;19.84;40.77
49397;BME280;35615;41.410;2.194;2023-10-31T01:33:07;101002.53;;;19.92;40.83
49397;BME280;35615;41.410;2.194;2023-10-31T01:35:34;101016.47;;;19.81;40.84
49397;BME280;35615;41.410;2.194;2023-10-31T01:38:03;100998.25;;;20.11;40.46
49397;BME280;35615;41.410;2.194;2023-10-31T01:40:30;101024.38;;;19.91;40.69
49397;BME280;35615;41.410;2.194;2023-10-31T01:42:58;101023.47;;;19.83;40.30
49397;BME280;35615;41.410;2.194;2023-10-31T01:45:25;101020.94;;;20.00;40.02
49397;BME280;35615;41.410;2.194;2023-10-31T01:47:53;101019.97;;;19.80;39.72
49397;BME280;35615;41.410;2.194;2023-10-31T01:50:24;101033.94;;;19.74;39.94
49397;BME280;35615;41.410;2.194;2023-10-31T01:52:51;101035.75;;;19.92;39.74
49397;BME280;35615;41.410;2.194;2023-10-31T01:55:19;101044.41;;;19.74;39.88
49397;BME280;35615;41.410;2.194;2023-10-31T01:57:47;101037.50;;;19.85;39.47
49397;BME280;35615;41.410;2.194;2023-10-31T02:00:15;101048.81;;;19.80;39.34
49397;BME280;35615;41.410;2.194;2023-10-31T02:02:43;101044.47;;;19.88;39.10
49397;BME280;35615;41.410;2.194;2023-10-31T02:05:11;101050.66;;;20.03;39.33
49397;BME280;35615;41.410;2.194;2023-10-31T02:07:38;101043.69;;;20.09;39.20
49397;BME280;35615;41.410;2.194;2023-10-31T02:10:06;101050.50;;;19.73;39.03
49397;BME280;35615;41.410;2.194;2023-10-31T02:12:35;101057.41;;;19.59;39.40
49397;BME280;35615;41.410;2.194;2023-10-31T02:15:04;101051.38;;;19.69;39.55
49397;BME280;35615;41.410;2.194;2023-10-31T02:17:31;101040.13;;;19.93;39.39
49397;BME280;35615;41.410;2.194;2023-10-31T02:19:59;101041.03;;;19.99;39.04
49397;BME280;35615;41.410;2.194;2023-10-31T02:22:26;101036.56;;;19.80;39.57
49397;BME280;35615;41.410;2.194;2023-10-31T02:24:54;101045.44;;;20.10;39.17
49397;BME280;35615;41.410;2.194;2023-10-31T02:27:21;101045.41;;;20.00;38.97
49397;BME280;35615;41.410;2.194;2023-10-31T02:29:48;101048.91;;;20.02;39.33
49397;BME280;35615;41.410;2.194;2023-10-31T02:32:15;101041.97;;;20.12;39.29
49397;BME280;35615;41.410;2.194;2023-10-31T02:34:44;101053.28;;;19.96;38.97
49397;BME280;35615;41.410;2.194;2023-10-31T02:37:12;101058.47;;;19.91;39.43
49397;BME280;35615;41.410;2.194;2023-10-31T02:39:40;101056.66;;;19.81;39.15
49397;BME280;35615;41.410;2.194;2023-10-31T02:42:07;101053.22;;;19.93;39.26
49397;BME280;35615;41.410;2.194;2023-10-31T02:44:36;101055.84;;;19.88;39.21
49397;BME280;35615;41.410;2.194;2023-10-31T02:47:04;101072.47;;;19.93;39.25
49397;BME280;35615;41.410;2.194;2023-10-31T02:49:32;101070.75;;;20.05;39.33
49397;BME280;35615;41.410;2.194;2023-10-31T02:51:59;101082.13;;;20.00;39.49
49397;BME280;35615;41.410;2.194;2023-10-31T02:54:26;101076.00;;;19.97;39.17
49397;BME280;35615;41.410;2.194;2023-10-31T02:56:54;101069.88;;;20.01;39.25
49397;BME280;35615;41.410;2.194;2023-10-31T02:59:21;101070.75;;;20.00;39.16
49397;BME280;35615;41.410;2.194;2023-10-31T03:01:48;101080.25;;;19.75;39.33
49397;BME280;35615;41.410;2.194;2023-10-31T03:04:16;101077.50;;;19.58;39.51
49397;BME280;35615;41.410;2.194;2023-10-31T03:06:43;101087.16;;;19.62;39.64
49397;BME280;35615;41.410;2.194;2023-10-31T03:09:11;101084.38;;;19.44;39.70
49397;BME280;35615;41.410;2.194;2023-10-31T03:11:38;101089.81;;;19.70;39.76
49397;BME280;35615;41.410;2.194;2023-10-31T03:14:05;101092.44;;;19.70;39.56
49397;BME280;35615;41.410;2.194;2023-10-31T03:16:32;101089.88;;;19.79;39.54
49397;BME280;35615;41.410;2.194;2023-10-31T03:19:01;101090.72;;;19.73;39.53
49397;BME280;35615;41.410;2.194;2023-10-31T03:21:28;101077.69;;;19.86;39.40
49397;BME280;35615;41.410;2.194;2023-10-31T03:23:56;101089.69;;;19.52;39.87
49397;BME280;35615;41.410;2.194;2023-10-31T03:26:23;101092.44;;;19.67;39.40
49397;BME280;35615;41.410;2.194;2023-10-31T03:28:50;101094.13;;;19.62;39.42
49397;BME280;35615;41.410;2.194;2023-10-31T03:31:18;101095.56;;;19.25;40.34
49397;BME280;35615;41.410;2.194;2023-10-31T03:33:46;101096.53;;;19.34;39.85
49397;BME280;35615;41.410;2.194;2023-10-31T03:36:13;101107.88;;;19.33;40.00
49397;BME280;35615;41.410;2.194;2023-10-31T03:38:40;101107.81;;;19.26;39.63
49397;BME280;35615;41.410;2.194;2023-10-31T03:41:11;101106.94;;;19.25;40.07
49397;BME280;35615;41.410;2.194;2023-10-31T03:43:39;101117.47;;;19.34;40.15
49397;BME280;35615;41.410;2.194;2023-10-31T03:46:07;101118.16;;;19.10;40.63
49397;BME280;35615;41.410;2.194;2023-10-31T03:48:38;101123.53;;;19.27;40.13
49397;BME280;35615;41.410;2.194;2023-10-31T03:51:05;101123.66;;;19.42;39.80
49397;BME280;35615;41.410;2.194;2023-10-31T03:53:33;101121.84;;;19.35;39.99
49397;BME280;35615;41.410;2.194;2023-10-31T03:56:02;101121.88;;;19.38;39.98
49397;BME280;35615;41.410;2.194;2023-10-31T03:58:30;101124.53;;;19.41;39.57
49397;BME280;35615;41.410;2.194;2023-10-31T04:00:57;101122.63;;;19.22;39.87
49397;BME280;35615;41.410;2.194;2023-10-31T04:03:25;101131.38;;;19.27;39.66
49397;BME280;35615;41.410;2.194;2023-10-31T04:05:53;101117.19;;;19.01;40.29
49397;BME280;35615;41.410;2.194;2023-10-31T04:08:21;101115.44;;;19.00;40.40
49397;BME280;35615;41.410;2.194;2023-10-31T04:10:48;101127.91;;;19.28;39.78
49397;BME280;35615;41.410;2.194;2023-10-31T04:13:15;101124.38;;;19.25;39.84
49397;BME280;35615;41.410;2.194;2023-10-31T04:15:43;101127.84;;;19.21;39.98
49397;BME280;35615;41.410;2.194;2023-10-31T04:18:11;101136.59;;;19.21;40.15
49397;BME280;35615;41.410;2.194;2023-10-31T04:20:38;101144.16;;;18.95;40.35
49397;BME280;35615;41.410;2.194;2023-10-31T04:23:06;101157.63;;;19.30;40.18
49397;BME280;35615;41.410;2.194;2023-10-31T04:25:33;101157.47;;;19.15;40.14
49397;BME280;35615;41.410;2.194;2023-10-31T04:28:00;101159.28;;;19.21;40.27
49397;BME280;35615;41.410;2.194;2023-10-31T04:30:27;101161.03;;;19.19;40.31
49397;BME280;35615;41.410;2.194;2023-10-31T04:32:55;101173.16;;;19.12;40.25
49397;BME280;35615;41.410;2.194;2023-10-31T04:35:23;101171.41;;;19.12;40.67
49397;BME280;35615;41.410;2.194;2023-10-31T04:37:50;101180.06;;;19.04;40.74
49397;BME280;35615;41.410;2.194;2023-10-31T04:40:17;101180.06;;;19.05;40.77
49397;BME280;35615;41.410;2.194;2023-10-31T04:42:46;101188.03;;;19.16;40.62
49397;BME280;35615;41.410;2.194;2023-10-31T04:45:14;101184.56;;;19.17;40.62
49397;BME280;35615;41.410;2.194;2023-10-31T04:47:42;101181.88;;;19.08;40.49
49397;BME280;35615;41.410;2.194;2023-10-31T04:50:09;101186.09;;;18.97;40.85
49397;BME280;35615;41.410;2.194;2023-10-31T04:52:37;101182.25;;;18.66;41.35
49397;BME280;35615;41.410;2.194;2023-10-31T04:55:04;101186.88;;;18.88;41.09
49397;BME280;35615;41.410;2.194;2023-10-31T04:57:32;101194.81;;;18.96;40.89
49397;BME280;35615;41.410;2.194;2023-10-31T04:59:59;101193.03;;;18.93;40.94
49397;BME280;35615;41.410;2.194;2023-10-31T05:02:26;101194.84;;;18.99;40.89
49397;BME280;35615;41.410;2.194;2023-10-31T05:04:58;101203.69;;;19.08;40.85
49397;BME280;35615;41.410;2.194;2023-10-31T05:07:26;101201.94;;;19.07;40.79
49397;BME280;35615;41.410;2.194;2023-10-31T05:09:53;101205.31;;;18.96;41.03
49397;BME280;35615;41.410;2.194;2023-10-31T05:12:20;101205.13;;;18.83;41.27
49397;BME280;35615;41.410;2.194;2023-10-31T05:14:50;101204.78;;;18.57;41.61
49397;BME280;35615;41.410;2.194;2023-10-31T05:17:17;101202.59;;;18.88;41.10
49397;BME280;35615;41.410;2.194;2023-10-31T05:19:45;101208.31;;;18.59;41.52
49397;BME280;35615;41.410;2.194;2023-10-31T05:22:12;101209.47;;;18.80;41.33
49397;BME280;35615;41.410;2.194;2023-10-31T05:24:39;101222.22;;;18.57;41.67
49397;BME280;35615;41.410;2.194;2023-10-31T05:27:07;101225.53;;;18.41;41.71
49397;BME280;35615;41.410;2.194;2023-10-31T05:29:35;101215.78;;;18.29;41.98
49397;BME280;35615;41.410;2.194;2023-10-31T05:32:03;101225.63;;;18.50;41.75
49397;BME280;35615;41.410;2.194;2023-10-31T05:34:31;101225.13;;;18.75;41.16
49397;BME280;35615;41.410;2.194;2023-10-31T05:36:59;101231.28;;;18.80;41.44
49397;BME280;35615;41.410;2.194;2023-10-31T05:39:26;101225.13;;;18.74;41.21
49397;BME280;35615;41.410;2.194;2023-10-31T05:41:56;101229.56;;;18.82;41.18
49397;BME280;35615;41.410;2.194;2023-10-31T05:44:23;101230.50;;;18.88;40.89
49397;BME280;35615;41.410;2.194;2023-10-31T05:46:51;101233.78;;;18.70;41.21
49397;BME280;35615;41.410;2.194;2023-10-31T05:49:18;101227.00;;;18.87;41.09
49397;BME280;35615;41.410;2.194;2023-10-31T05:51:53;101232.44;;;18.37;41.90
49397;BME280;35615;41.410;2.194;2023-10-31T05:54:20;101231.41;;;18.27;41.98
49397;BME280;35615;41.410;2.194;2023-10-31T05:56:47;101232.88;;;18.66;41.29
49397;BME280;35615;41.410;2.194;2023-10-31T05:59:14;101223.88;;;18.49;41.54
49397;BME280;35615;41.410;2.194;2023-10-31T06:01:42;101234.13;;;18.34;42.09
49397;BME280;35615;41.410;2.194;2023-10-31T06:04:10;101237.94;;;17.96;42.96
49397;BME280;35615;41.410;2.194;2023-10-31T06:06:40;101248.91;;;18.30;42.12
49397;BME280;35615;41.410;2.194;2023-10-31T06:09:08;101258.44;;;18.26;42.04
49397;BME280;35615;41.410;2.194;2023-10-31T06:11:42;101268.28;;;17.87;42.80
49397;BME280;35615;41.410;2.194;2023-10-31T06:14:17;101270.44;;;18.12;42.29
49397;BME280;35615;41.410;2.194;2023-10-31T06:16:54;101283.88;;;18.38;41.59
49397;BME280;35615;41.410;2.194;2023-10-31T06:19:25;101274.28;;;18.37;41.83
49397;BME280;35615;41.410;2.194;2023-10-31T06:21:53;101281.50;;;18.53;41.38
49397;BME280;35615;41.410;2.194;2023-10-31T06:24:20;101285.81;;;17.94;42.33
49397;BME280;35615;41.410;2.194;2023-10-31T06:26:49;101290.97;;;18.44;41.69
49397;BME280;35615;41.410;2.194;2023-10-31T06:29:18;101299.69;;;18.46;41.62
49397;BME280;35615;41.410;2.194;2023-10-31T06:32:10;101292.91;;;18.60;41.58
49397;BME280;35615;41.410;2.194;2023-10-31T06:34:37;101294.81;;;18.69;41.59
49397;BME280;35615;41.410;2.194;2023-10-31T06:37:05;101300.53;;;18.43;41.55
49397;BME280;35615;41.410;2.194;2023-10-31T06:39:38;101299.84;;;18.55;41.57
49397;BME280;35615;41.410;2.194;2023-10-31T06:42:10;101302.63;;;18.64;42.17
49397;BME280;35615;41.410;2.194;2023-10-31T06:44:40;101307.59;;;18.49;41.51
49397;BME280;35615;41.410;2.194;2023-10-31T06:47:11;101315.72;;;18.64;41.70
49397;BME280;35615;41.410;2.194;2023-10-31T06:49:39;101321.09;;;18.75;41.25
49397;BME280;35615;41.410;2.194;2023-10-31T06:52:06;101312.09;;;18.59;41.13
49397;BME280;35615;41.410;2.194;2023-10-31T06:54:35;101318.22;;;18.59;41.31
49397;BME280;35615;41.410;2.194;2023-10-31T06:57:03;101321.97;;;18.75;41.00
49397;BME280;35615;41.410;2.194;2023-10-31T06:59:31;101318.19;;;18.58;41.19
49397;BME280;35615;41.410;2.194;2023-10-31T07:01:58;101314.91;;;18.70;41.08
49397;BME280;35615;41.410;2.194;2023-10-31T07:04:25;101309.66;;;18.68;41.28
49397;BME280;35615;41.410;2.194;2023-10-31T07:07:08;101300.31;;;18.85;41.12
49397;BME280;35615;41.410;2.194;2023-10-31T07:09:43;101304.44;;;18.70;41.14
49397;BME280;35615;41.410;2.194;2023-10-31T07:12:19;101299.59;;;18.40;41.48
49397;BME280;35615;41.410;2.194;2023-10-31T07:14:49;101292.69;;;18.42;41.50
49397;BME280;35615;41.410;2.194;2023-10-31T07:17:25;101299.69;;;18.44;41.62
49397;BME280;35615;41.410;2.194;2023-10-31T07:20:04;101302.22;;;18.40;41.70
49397;BME280;35615;41.410;2.194;2023-10-31T07:22:35;101311.03;;;18.45;41.56
49397;BME280;35615;41.410;2.194;2023-10-31T07:25:16;101306.28;;;18.19;41.99
49397;BME280;35615;41.410;2.194;2023-10-31T07:27:47;101308.34;;;18.40;41.54
49397;BME280;35615;41.410;2.194;2023-10-31T07:30:33;101300.59;;;18.48;41.44
49397;BME280;35615;41.410;2.194;2023-10-31T07:33:06;101316.34;;;18.51;41.11
49397;BME280;35615;41.410;2.194;2023-10-31T07:35:43;101328.91;;;18.73;41.00
49397;BME280;35615;41.410;2.194;2023-10-31T07:38:33;101334.75;;;18.57;41.09
49397;BME280;35615;41.410;2.194;2023-10-31T07:41:04;101352.66;;;18.85;40.81
49397;BME280;35615;41.410;2.194;2023-10-31T07:43:36;101359.78;;;18.96;40.66
49397;BME280;35615;41.410;2.194;2023-10-31T07:46:09;101366.78;;;18.98;40.56
49397;BME280;35615;41.410;2.194;2023-10-31T07:48:36;101375.50;;;18.96;40.40
49397;BME280;35615;41.410;2.194;2023-10-31T07:51:07;101386.75;;;18.92;40.60
49397;BME280;35615;41.410;2.194;2023-10-31T07:53:34;101386.34;;;19.26;39.91
49397;BME280;35615;41.410;2.194;2023-10-31T07:56:01;101389.22;;;19.44;40.24
49397;BME280;35615;41.410;2.194;2023-10-31T07:58:29;101387.50;;;19.48;40.62
49397;BME280;35615;41.410;2.194;2023-10-31T08:00:56;101387.50;;;19.50;41.09
49397;BME280;35615;41.410;2.194;2023-10-31T08:03:23;101387.56;;;19.51;41.08
49397;BME280;35615;41.410;2.194;2023-10-31T08:05:52;101397.41;;;19.70;40.68
49397;BME280;35615;41.410;2.194;2023-10-31T08:08:19;101404.50;;;19.82;40.83
49397;BME280;35615;41.410;2.194;2023-10-31T08:10:47;101407.06;;;19.75;40.86
49397;BME280;35615;41.410;2.194;2023-10-31T08:13:14;101412.50;;;19.94;40.56
49397;BME280;35615;41.410;2.194;2023-10-31T08:15:41;101415.34;;;20.16;40.54
49397;BME280;35615;41.410;2.194;2023-10-31T08:18:08;101410.28;;;20.37;40.63
49397;BME280;35615;41.410;2.194;2023-10-31T08:20:35;101407.94;;;20.69;39.80
49397;BME280;35615;41.410;2.194;2023-10-31T08:23:03;101402.91;;;21.03;39.44
49397;BME280;35615;41.410;2.194;2023-10-31T08:25:30;101397.03;;;21.40;39.04
49397;BME280;35615;41.410;2.194;2023-10-31T08:28:00;101394.50;;;21.75;38.54
49397;BME280;35615;41.410;2.194;2023-10-31T08:30:27;101380.50;;;22.05;37.77
49397;BME280;35615;41.410;2.194;2023-10-31T08:32:55;101377.91;;;22.24;37.46
49397;BME280;35615;41.410;2.194;2023-10-31T08:35:25;101384.94;;;22.08;36.37
49397;BME280;35615;41.410;2.194;2023-10-31T08:37:52;101372.66;;;22.56;36.23
49397;BME280;35615;41.410;2.194;2023-10-31T08:40:20;101378.78;;;22.67;35.81
49397;BME280;35615;41.410;2.194;2023-10-31T08:42:47;101366.44;;;22.83;35.02
49397;BME280;35615;41.410;2.194;2023-10-31T08:45:14;101364.69;;;23.00;34.44
49397;BME280;35615;41.410;2.194;2023-10-31T08:47:42;101376.09;;;22.93;34.26
49397;BME280;35615;41.410;2.194;2023-10-31T08:50:09;101377.88;;;22.68;33.72
49397;BME280;35615;41.410;2.194;2023-10-31T08:52:38;101377.88;;;22.91;34.05
49397;BME280;35615;41.410;2.194;2023-10-31T08:55:05;101381.38;;;22.98;34.03
49397;BME280;35615;41.410;2.194;2023-10-31T08:57:33;101386.59;;;23.14;33.92
49397;BME280;35615;41.410;2.194;2023-10-31T09:00:03;101390.84;;;23.46;34.02
49397;BME280;35615;41.410;2.194;2023-10-31T09:02:32;101402.28;;;23.46;33.56
49397;BME280;35615;41.410;2.194;2023-10-31T09:04:59;101400.34;;;23.82;33.37
49397;BME280;35615;41.410;2.194;2023-10-31T09:07:33;101411.00;;;23.67;33.27
49397;BME280;35615;41.410;2.194;2023-10-31T09:10:00;101407.25;;;24.04;33.15
49397;BME280;35615;41.410;2.194;2023-10-31T09:12:27;101408.91;;;24.16;33.00
49397;BME280;35615;41.410;2.194;2023-10-31T09:14:58;101408.78;;;24.38;33.16
49397;BME280;35615;41.410;2.194;2023-10-31T09:17:28;101412.00;;;24.75;32.95
49397;BME280;35615;41.410;2.194;2023-10-31T09:19:56;101426.75;;;24.97;32.63
49397;BME280;35615;41.410;2.194;2023-10-31T09:22:25;101420.66;;;24.89;31.96
49397;BME280;35615;41.410;2.194;2023-10-31T09:24:57;101423.25;;;24.92;31.82
49397;BME280;35615;41.410;2.194;2023-10-31T09:27:24;101413.72;;;24.77;31.61
49397;BME280;35615;41.410;2.194;2023-10-31T09:29:51;101415.25;;;25.00;30.75
49397;BME280;35615;41.410;2.194;2023-10-31T09:32:18;101416.00;;;25.17;30.78
49397;BME280;35615;41.410;2.194;2023-10-31T09:34:49;101420.41;;;25.15;30.83
49397;BME280;35615;41.410;2.194;2023-10-31T09:37:16;101422.13;;;25.19;30.99
49397;BME280;35615;41.410;2.194;2023-10-31T09:39:45;101423.63;;;25.38;30.31
49397;BME280;35615;41.410;2.194;2023-10-31T09:42:15;101423.41;;;25.58;30.16
49397;BME280;35615;41.410;2.194;2023-10-31T09:44:48;101419.59;;;25.81;29.68
49397;BME280;35615;41.410;2.194;2023-10-31T09:47:22;101423.19;;;25.76;29.51
49397;BME280;35615;41.410;2.194;2023-10-31T09:49:52;101426.72;;;26.34;29.58
49397;BME280;35615;41.410;2.194;2023-10-31T09:52:25;101441.06;;;26.21;28.83
49397;BME280;35615;41.410;2.194;2023-10-31T09:54:53;101448.78;;;26.39;28.96
49397;BME280;35615;41.410;2.194;2023-10-31T09:57:21;101456.63;;;26.44;28.53
49397;BME280;35615;41.410;2.194;2023-10-31T09:59:55;101462.66;;;26.53;27.95
49397;BME280;35615;41.410;2.194;2023-10-31T10:02:22;101452.28;;;26.90;28.16
49397;BME280;35615;41.410;2.194;2023-10-31T10:04:51;101452.09;;;27.03;27.93
49397;BME280;35615;41.410;2.194;2023-10-31T10:07:23;101452.72;;;27.15;28.31
49397;BME280;35615;41.410;2.194;2023-10-31T10:09:52;101452.31;;;27.37;27.45
49397;BME280;35615;41.410;2.194;2023-10-31T10:12:22;101454.53;;;27.13;27.52
49397;BME280;35615;41.410;2.194;2023-10-31T10:14:52;101463.03;;;27.32;27.20
49397;BME280;35615;41.410;2.194;2023-10-31T10:17:24;101455.63;;;27.49;26.74
49397;BME280;35615;41.410;2.194;2023-10-31T10:20:10;101456.06;;;27.70;26.26
49397;BME280;35615;41.410;2.194;2023-10-31T10:22:41;101453.22;;;27.79;26.52
49397;BME280;35615;41.410;2.194;2023-10-31T10:25:39;101457.97;;;28.05;25.77
49397;BME280;35615;41.410;2.194;2023-10-31T10:28:12;101460.31;;;28.19;26.62
49397;BME280;35615;41.410;2.194;2023-10-31T10:30:40;101457.47;;;28.28;26.24
49397;BME280;35615;41.410;2.194;2023-10-31T10:33:08;101458.78;;;28.46;26.03
49397;BME280;35615;41.410;2.194;2023-10-31T10:35:35;101455.59;;;28.67;25.79
49397;BME280;35615;41.410;2.194;2023-10-31T10:38:13;101457.72;;;28.87;25.06
49397;BME280;35615;41.410;2.194;2023-10-31T10:40:45;101453.03;;;28.98;25.27
49397;BME280;35615;41.410;2.194;2023-10-31T10:43:25;101452.44;;;29.19;25.21
49397;BME280;35615;41.410;2.194;2023-10-31T10:45:57;101444.78;;;29.71;24.87
49397;BME280;35615;41.410;2.194;2023-10-31T10:48:29;101447.56;;;29.66;24.42
49397;BME280;35615;41.410;2.194;2023-10-31T10:51:12;101452.19;;;29.89;24.25
49397;BME280;35615;41.410;2.194;2023-10-31T10:53:52;101447.53;;;30.24;23.49
49397;BME280;35615;41.410;2.194;2023-10-31T10:56:39;101452.47;;;29.50;23.38
49397;BME280;35615;41.410;2.194;2023-10-31T10:59:15;101440.13;;;30.07;23.45
49397;BME280;35615;41.410;2.194;2023-10-31T11:01:51;101434.38;;;30.19;23.58
49397;BME280;35615;41.410;2.194;2023-10-31T11:04:22;101432.03;;;30.63;23.51
49397;BME280;35615;41.410;2.194;2023-10-31T11:06:49;101422.88;;;30.72;23.25
49397;BME280;35615;41.410;2.194;2023-10-31T11:12:16;101437.69;;;30.26;23.07
49397;BME280;35615;41.410;2.194;2023-10-31T11:14:55;101433.28;;;30.25;23.00
49397;BME280;35615;41.410;2.194;2023-10-31T11:17:31;101430.50;;;30.29;22.92
49397;BME280;35615;41.410;2.194;2023-10-31T11:20:13;101425.00;;;30.87;22.16
49397;BME280;35615;41.410;2.194;2023-10-31T11:22:48;101416.28;;;31.07;22.50
49397;BME280;35615;41.410;2.194;2023-10-31T11:25:35;101412.25;;;31.43;21.23
49397;BME280;35615;41.410;2.194;2023-10-31T11:28:15;101402.75;;;31.11;21.87
49397;BME280;35615;41.410;2.194;2023-10-31T11:30:43;101403.25;;;31.22;22.37
49397;BME280;35615;41.410;2.194;2023-10-31T11:33:18;101404.22;;;31.67;22.06
49397;BME280;35615;41.410;2.194;2023-10-31T11:36:00;101385.31;;;31.95;21.12
49397;BME280;35615;41.410;2.194;2023-10-31T11:38:39;101403.16;;;31.94;20.59
49397;BME280;35615;41.410;2.194;2023-10-31T11:41:17;101395.81;;;32.21;21.44
49397;BME280;35615;41.410;2.194;2023-10-31T11:46:27;101388.97;;;32.14;20.98
49397;BME280;35615;41.410;2.194;2023-10-31T11:49:07;101389.59;;;31.99;21.27
49397;BME280;35615;41.410;2.194;2023-10-31T11:51:37;101390.91;;;31.89;21.57
49397;BME280;35615;41.410;2.194;2023-10-31T11:54:18;101403.97;;;31.96;20.95
49397;BME280;35615;41.410;2.194;2023-10-31T11:56:51;101386.50;;;32.09;20.92
49397;BME280;35615;41.410;2.194;2023-10-31T11:59:19;101395.81;;;31.99;21.24
49397;BME280;35615;41.410;2.194;2023-10-31T12:01:47;101397.44;;;31.35;21.71
49397;BME280;35615;41.410;2.194;2023-10-31T12:04:21;101406.50;;;31.99;21.64
49397;BME280;35615;41.410;2.194;2023-10-31T12:06:59;101402.47;;;32.33;20.79
49397;BME280;35615;41.410;2.194;2023-10-31T12:09:29;101394.31;;;32.36;21.16
49397;BME280;35615;41.410;2.194;2023-10-31T12:11:59;101391.97;;;32.06;21.05
49397;BME280;35615;41.410;2.194;2023-10-31T12:14:30;101396.19;;;31.90;21.43
49397;BME280;35615;41.410;2.194;2023-10-31T12:17:06;101401.81;;;31.61;21.17
49397;BME280;35615;41.410;2.194;2023-10-31T12:19:42;101403.34;;;31.66;21.61
49397;BME280;35615;41.410;2.194;2023-10-31T12:22:27;101388.06;;;31.70;21.60
49397;BME280;35615;41.410;2.194;2023-10-31T12:25:02;101389.88;;;31.69;21.58
49397;BME280;35615;41.410;2.194;2023-10-31T12:27:45;101393.28;;;31.74;21.54
49397;BME280;35615;41.410;2.194;2023-10-31T12:30:21;101393.56;;;31.20;21.57
49397;BME280;35615;41.410;2.194;2023-10-31T12:32:54;101383.84;;;30.92;21.82
49397;BME280;35615;41.410;2.194;2023-10-31T12:35:29;101395.47;;;31.16;21.68
49397;BME280;35615;41.410;2.194;2023-10-31T12:38:12;101399.31;;;30.84;22.07
49397;BME280;35615;41.410;2.194;2023-10-31T12:40:52;101382.56;;;31.04;22.16
49397;BME280;35615;41.410;2.194;2023-10-31T12:43:27;101377.50;;;31.21;21.54
49397;BME280;35615;41.410;2.194;2023-10-31T12:46:28;101381.75;;;30.77;21.34
49397;BME280;35615;41.410;2.194;2023-10-31T12:49:19;101382.91;;;30.95;21.49
49397;BME280;35615;41.410;2.194;2023-10-31T12:52:00;101379.44;;;30.91;21.97
49397;BME280;35615;41.410;2.194;2023-10-31T12:57:09;101368.28;;;30.82;22.00
49397;BME280;35615;41.410;2.194;2023-10-31T12:59:55;101366.75;;;30.75;21.83
49397;BME280;35615;41.410;2.194;2023-10-31T13:02:30;101366.16;;;30.14;22.29
49397;BME280;35615;41.410;2.194;2023-10-31T13:05:26;101353.03;;;30.07;22.48
49397;BME280;35615;41.410;2.194;2023-10-31T13:08:00;101361.97;;;30.06;23.12
49397;BME280;35615;41.410;2.194;2023-10-31T13:10:44;101370.84;;;30.05;22.97
49397;BME280;35615;41.410;2.194;2023-10-31T13:13:29;101373.13;;;29.62;23.37
49397;BME280;35615;41.410;2.194;2023-10-31T13:15:59;101360.63;;;29.34;23.52
49397;BME280;35615;41.410;2.194;2023-10-31T13:18:39;101356.88;;;29.41;23.72
49397;BME280;35615;41.410;2.194;2023-10-31T13:21:11;101353.44;;;29.36;24.00